createdAt,value
2022-09-20T00:01:35.582Z,4.88
2022-09-20T00:04:06.875Z,4.22
2022-09-20T00:06:36.295Z,4.07
2022-09-20T00:09:05.299Z,6.65
2022-09-20T00:11:35.724Z,5.05
2022-09-20T00:14:08.379Z,4.15
2022-09-20T00:16:41.332Z,4.40
2022-09-20T00:19:17.314Z,3.10
2022-09-20T00:21:45.604Z,4.13
2022-09-20T00:24:14.147Z,5.68
2022-09-20T00:26:42.472Z,4.07
2022-09-20T00:29:12.684Z,5.45
2022-09-20T00:31:42.934Z,4.40
2022-09-20T00:34:29.874Z,4.78
2022-09-20T00:36:58.257Z,4.10
2022-09-20T00:39:26.991Z,4.57
2022-09-20T00:41:55.228Z,4.28
2022-09-20T00:44:44.695Z,4.97
2022-09-20T00:47:22.978Z,5.70
2022-09-20T00:49:54.634Z,5.20
2022-09-20T00:52:23.878Z,4.20
2022-09-20T00:54:52.276Z,4.63
2022-09-20T00:57:20.799Z,4.70
2022-09-20T00:59:51.666Z,5.07
2022-09-20T01:02:27.079Z,4.03
2022-09-20T01:04:57.603Z,6.63
2022-09-20T01:07:26.641Z,4.22
2022-09-20T01:09:54.916Z,4.10
2022-09-20T01:12:27.342Z,4.38
2022-09-20T01:14:57.627Z,4.30
2022-09-20T01:17:30.330Z,4.38
2022-09-20T01:20:10.933Z,4.40
2022-09-20T01:22:49.609Z,4.60
2022-09-20T01:25:26.838Z,3.85
2022-09-20T01:27:56.721Z,4.15
2022-09-20T01:30:29.662Z,3.90
2022-09-20T01:33:08.550Z,6.32
2022-09-20T01:35:37.614Z,4.35
2022-09-20T01:38:30.846Z,3.55
2022-09-20T01:41:07.588Z,4.85
2022-09-20T01:43:43.874Z,4.40
2022-09-20T01:46:25.599Z,3.90
2022-09-20T01:49:03.799Z,5.40
2022-09-20T01:52:03.999Z,5.55
2022-09-20T01:55:14.233Z,4.78
2022-09-20T01:58:08.446Z,5.00
2022-09-20T02:00:52.126Z,4.13
2022-09-20T02:03:48.942Z,4.85
2022-09-20T02:06:34.872Z,4.10
2022-09-20T02:09:26.856Z,4.55
2022-09-20T02:12:19.447Z,3.47
2022-09-20T02:15:00.326Z,3.83
2022-09-20T02:17:39.550Z,4.78
2022-09-20T02:20:20.897Z,3.50
2022-09-20T02:23:01.168Z,3.97
2022-09-20T02:25:55.938Z,4.32
2022-09-20T02:28:34.764Z,4.32
2022-09-20T02:31:11.651Z,4.03
2022-09-20T02:34:03.337Z,5.55
2022-09-20T02:36:41.638Z,4.20
2022-09-20T02:39:16.326Z,3.92
2022-09-20T02:44:40.287Z,4.10
2022-09-20T02:47:18.357Z,4.13
2022-09-20T02:50:00.457Z,4.13
2022-09-20T02:52:37.356Z,4.38
2022-09-20T02:55:13.793Z,4.30
2022-09-20T02:57:49.637Z,4.88
2022-09-20T03:00:24.700Z,3.90
2022-09-20T03:03:07.261Z,4.20
2022-09-20T03:05:46.264Z,3.75
2022-09-20T03:08:29.558Z,4.85
2022-09-20T03:11:09.835Z,3.72
2022-09-20T03:13:55.533Z,5.40
2022-09-20T03:16:39.905Z,4.00
2022-09-20T03:19:22.469Z,4.07
2022-09-20T03:22:01.719Z,4.88
2022-09-20T03:24:42.314Z,4.75
2022-09-20T03:27:20.866Z,4.75
2022-09-20T03:30:02.474Z,3.85
2022-09-20T03:32:45.474Z,3.80
2022-09-20T03:35:25.683Z,3.65
2022-09-20T03:38:16.904Z,4.30
2022-09-20T03:41:07.314Z,4.00
2022-09-20T03:43:53.680Z,4.68
2022-09-20T03:46:27.645Z,4.78
2022-09-20T03:49:47.988Z,4.25
2022-09-20T03:52:29.784Z,4.60
2022-09-20T03:55:32.436Z,3.42
2022-09-20T03:58:14.746Z,3.80
2022-09-20T04:00:57.476Z,3.78
2022-09-20T04:03:34.231Z,4.45
2022-09-20T04:06:30.254Z,4.15
2022-09-20T04:09:20.813Z,4.05
2022-09-20T04:12:00.346Z,3.50
2022-09-20T04:14:40.411Z,4.57
2022-09-20T04:17:24.393Z,4.10
2022-09-20T04:20:02.508Z,3.88
2022-09-20T04:22:31.438Z,3.80
2022-09-20T04:25:05.001Z,4.82
2022-09-20T04:27:40.189Z,4.00
2022-09-20T04:30:19.327Z,3.65
2022-09-20T04:32:56.678Z,4.13
2022-09-20T04:35:53.884Z,5.50
2022-09-20T04:38:22.810Z,3.92
2022-09-20T04:41:16.602Z,5.90
2022-09-20T04:44:41.502Z,4.43
2022-09-20T04:47:42.697Z,4.13
2022-09-20T04:50:45.919Z,4.85
2022-09-20T04:53:48.233Z,5.22
2022-09-20T04:56:22.541Z,4.40
2022-09-20T04:59:06.748Z,5.38
2022-09-20T05:02:11.543Z,4.95
2022-09-20T05:05:18.925Z,6.60
2022-09-20T05:08:21.030Z,8.43
2022-09-20T05:11:23.281Z,6.60
2022-09-20T05:14:12.821Z,6.88
2022-09-20T05:17:00.496Z,7.38
2022-09-20T05:19:35.334Z,5.88
2022-09-20T05:22:19.063Z,4.75
2022-09-20T05:25:06.470Z,5.25
2022-09-20T05:27:44.323Z,4.90
2022-09-20T05:30:34.450Z,4.70
2022-09-20T05:33:13.173Z,6.15
2022-09-20T05:35:49.947Z,4.72
2022-09-20T05:41:13.991Z,5.30
2022-09-20T05:43:53.621Z,6.95
2022-09-20T05:46:35.815Z,4.32
2022-09-20T05:49:13.051Z,4.88
2022-09-20T05:51:59.617Z,5.00
2022-09-20T05:54:50.854Z,5.88
2022-09-20T05:57:30.974Z,5.50
2022-09-20T06:00:07.439Z,5.05
2022-09-20T06:02:53.961Z,5.30
2022-09-20T06:05:34.447Z,4.50
2022-09-20T06:08:24.352Z,4.85
2022-09-20T06:11:14.141Z,4.63
2022-09-20T06:14:08.885Z,6.00
2022-09-20T06:16:44.458Z,5.50
2022-09-20T06:19:26.360Z,5.90
2022-09-20T06:21:56.151Z,5.95
2022-09-20T06:24:43.696Z,6.50
2022-09-20T06:27:15.502Z,5.88
2022-09-20T06:29:53.058Z,6.00
2022-09-20T06:32:21.632Z,5.80
2022-09-20T06:34:51.958Z,6.82
2022-09-20T06:37:52.545Z,6.43
2022-09-20T06:40:51.273Z,5.43
2022-09-20T06:43:19.541Z,4.95
2022-09-20T06:45:48.492Z,6.68
2022-09-20T06:48:19.161Z,6.68
2022-09-20T06:50:48.928Z,6.43
2022-09-20T06:53:19.586Z,6.40
2022-09-20T06:55:48.556Z,10.35
2022-09-20T06:58:16.820Z,8.95
2022-09-20T07:00:45.361Z,6.88
2022-09-20T07:03:13.724Z,9.90
2022-09-20T07:05:42.130Z,8.43
2022-09-20T07:08:12.535Z,11.38
2022-09-20T07:10:41.191Z,9.52
2022-09-20T07:13:13.756Z,7.97
2022-09-20T07:15:42.192Z,15.55
2022-09-20T07:18:10.593Z,10.07
2022-09-20T07:20:39.495Z,15.57
2022-09-20T07:23:08.135Z,12.73
2022-09-20T07:25:38.121Z,11.50
2022-09-20T07:28:06.424Z,9.00
2022-09-20T07:30:34.708Z,9.20
2022-09-20T07:33:03.065Z,11.18
2022-09-20T07:35:31.797Z,10.68
2022-09-20T07:38:00.242Z,13.80
2022-09-20T07:40:28.647Z,10.00
2022-09-20T07:42:58.924Z,12.00
2022-09-20T07:45:27.338Z,10.63
2022-09-20T07:47:55.686Z,10.38
2022-09-20T07:50:24.094Z,10.82
2022-09-20T07:52:52.386Z,10.02
2022-09-20T07:55:20.695Z,9.60
2022-09-20T07:57:48.963Z,10.13
2022-09-20T08:00:19.294Z,10.30
2022-09-20T08:02:47.717Z,9.20
2022-09-20T08:05:16.059Z,10.68
2022-09-20T08:07:44.334Z,14.57
2022-09-20T08:10:12.689Z,10.88
2022-09-20T08:15:31.985Z,6.85
2022-09-20T08:18:00.410Z,7.07
2022-09-20T08:20:28.814Z,7.63
2022-09-20T08:23:22.031Z,8.73
2022-09-20T08:25:48.474Z,8.82
2022-09-20T08:28:16.835Z,10.65
2022-09-20T08:30:46.550Z,8.02
2022-09-20T08:33:15.056Z,11.45
2022-09-20T08:35:43.386Z,10.48
2022-09-20T08:41:05.802Z,8.65
2022-09-20T08:43:39.758Z,14.65
2022-09-20T08:46:15.402Z,12.43
2022-09-20T08:48:44.993Z,8.48
2022-09-20T08:51:22.681Z,10.00
2022-09-20T08:53:54.209Z,12.07
2022-09-20T08:56:23.433Z,9.23
2022-09-20T08:58:53.188Z,8.80
2022-09-20T09:01:25.319Z,8.50
2022-09-20T09:03:58.795Z,9.48
2022-09-20T09:06:27.133Z,9.73
2022-09-20T09:09:00.365Z,7.13
2022-09-20T09:11:28.642Z,7.25
2022-09-20T09:14:01.356Z,6.00
2022-09-20T09:16:36.493Z,4.53
2022-09-20T09:19:36.806Z,7.00
2022-09-20T09:22:06.618Z,3.83
2022-09-20T09:24:34.999Z,5.85
2022-09-20T09:27:10.156Z,7.25
2022-09-20T09:29:49.857Z,4.93
2022-09-20T09:32:25.037Z,6.35
2022-09-20T09:34:53.371Z,3.95
2022-09-20T09:37:28.815Z,5.38
2022-09-20T09:40:11.221Z,6.65
2022-09-20T09:42:50.098Z,5.18
2022-09-20T09:45:36.087Z,4.22
2022-09-20T09:48:19.936Z,3.88
2022-09-20T09:50:49.029Z,3.58
2022-09-20T09:53:21.735Z,3.20
2022-09-20T09:56:17.886Z,5.38
2022-09-20T09:59:07.447Z,6.88
2022-09-20T10:01:44.800Z,6.25
2022-09-20T10:04:21.471Z,4.95
2022-09-20T10:06:59.852Z,5.03
2022-09-20T10:09:46.590Z,4.65
2022-09-20T10:12:28.717Z,5.28
2022-09-20T10:15:09.551Z,3.97
2022-09-20T10:17:49.294Z,4.68
2022-09-20T10:20:35.626Z,4.70
2022-09-20T10:23:51.455Z,4.13
2022-09-20T10:26:22.335Z,5.55
2022-09-20T10:29:00.045Z,3.17
2022-09-20T10:31:41.577Z,4.05
2022-09-20T10:34:51.354Z,4.65
2022-09-20T10:37:34.187Z,3.40
2022-09-20T10:40:14.328Z,3.78
2022-09-20T10:43:06.115Z,2.58
2022-09-20T10:48:35.451Z,4.40
2022-09-20T10:51:12.534Z,4.85
2022-09-20T10:53:48.497Z,5.57
2022-09-20T10:56:27.560Z,3.65
2022-09-20T10:59:14.301Z,3.80
2022-09-20T11:01:50.076Z,5.07
2022-09-20T11:04:48.141Z,3.75
2022-09-20T11:07:20.217Z,2.65
2022-09-20T11:09:56.439Z,3.35
2022-09-20T11:12:32.327Z,3.28
2022-09-20T11:15:05.451Z,2.83
2022-09-20T11:17:40.417Z,3.40
2022-09-20T11:20:17.992Z,2.50
2022-09-20T11:22:51.562Z,2.80
2022-09-20T11:25:29.436Z,2.40
2022-09-20T11:28:04.029Z,2.55
2022-09-20T11:30:39.602Z,4.90
2022-09-20T11:33:18.683Z,3.67
2022-09-20T11:35:50.198Z,2.80
2022-09-20T11:38:24.875Z,2.53
2022-09-20T11:40:58.114Z,3.53
2022-09-20T11:43:28.984Z,3.35
2022-09-20T11:46:00.978Z,1.80
2022-09-20T11:48:35.635Z,2.30
2022-09-20T11:54:09.090Z,3.22
2022-09-20T11:56:39.897Z,2.47
2022-09-20T11:59:27.114Z,2.45
2022-09-20T12:01:58.193Z,3.10
2022-09-20T12:04:33.976Z,2.63
2022-09-20T12:07:10.484Z,4.85
2022-09-20T12:09:44.420Z,4.60
2022-09-20T12:12:30.382Z,3.60
2022-09-20T12:15:01.766Z,3.20
2022-09-20T12:18:16.349Z,2.72
2022-09-20T12:21:16.168Z,4.05
2022-09-20T12:24:02.246Z,3.75
2022-09-20T12:26:48.555Z,4.55
2022-09-20T12:29:54.159Z,3.60
2022-09-20T12:35:03.153Z,3.63
2022-09-20T12:37:31.546Z,3.58
2022-09-20T12:39:59.922Z,3.03
2022-09-20T12:42:31.297Z,5.20
2022-09-20T12:45:03.899Z,5.60
2022-09-20T12:47:35.266Z,3.97
2022-09-20T12:50:22.591Z,3.17
2022-09-20T12:52:56.894Z,4.03
2022-09-20T12:55:43.824Z,4.90
2022-09-20T12:58:27.944Z,4.55
2022-09-20T13:01:32.201Z,5.25
2022-09-20T13:04:38.087Z,5.10
2022-09-20T13:07:36.416Z,4.95
2022-09-20T13:10:32.339Z,3.80
2022-09-20T13:13:05.627Z,3.22
2022-09-20T13:15:35.594Z,3.80
2022-09-20T13:18:04.032Z,4.70
2022-09-20T13:20:35.142Z,4.63
2022-09-20T13:23:06.352Z,3.92
2022-09-20T13:25:35.521Z,3.40
2022-09-20T13:28:11.021Z,3.38
2022-09-20T13:30:41.721Z,2.63
2022-09-20T13:33:21.772Z,4.32
2022-09-20T13:35:54.394Z,3.42
2022-09-20T13:38:27.142Z,3.92
2022-09-20T13:41:04.518Z,2.45
2022-09-20T13:43:37.833Z,3.53
2022-09-20T13:46:12.017Z,4.40
2022-09-20T13:48:40.823Z,4.53
2022-09-20T13:51:19.193Z,2.40
2022-09-20T13:53:48.868Z,3.05
2022-09-20T13:56:22.298Z,2.03
2022-09-20T13:58:51.531Z,2.85
2022-09-20T14:01:30.120Z,3.70
2022-09-20T14:04:04.300Z,3.63
2022-09-20T14:06:33.277Z,2.08
2022-09-20T14:09:10.823Z,2.58
2022-09-20T14:11:40.947Z,2.85
2022-09-20T14:14:13.282Z,3.15
2022-09-20T14:16:45.130Z,2.53
2022-09-20T14:19:16.663Z,3.22
2022-09-20T14:21:45.653Z,2.60
2022-09-20T14:24:33.483Z,1.42
2022-09-20T14:27:18.076Z,1.83
2022-09-20T14:29:47.986Z,2.45
2022-09-20T14:32:28.756Z,2.28
2022-09-20T14:35:04.931Z,2.00
2022-09-20T14:37:36.052Z,1.73
2022-09-20T14:40:17.717Z,3.60
2022-09-20T14:42:48.157Z,1.63
2022-09-20T14:45:24.213Z,3.00
2022-09-20T14:48:05.683Z,1.98
2022-09-20T14:50:40.551Z,2.65
2022-09-20T14:53:27.849Z,2.38
2022-09-20T14:56:00.467Z,1.77
2022-09-20T14:58:28.832Z,1.67
2022-09-20T15:01:01.505Z,3.25
2022-09-20T15:03:33.250Z,2.45
2022-09-20T15:06:01.701Z,2.00
2022-09-20T15:08:30.268Z,3.45
2022-09-20T15:11:01.852Z,3.65
2022-09-20T15:13:30.093Z,2.40
2022-09-20T15:15:59.613Z,2.92
2022-09-20T15:18:34.263Z,3.28
2022-09-20T15:21:02.721Z,1.88
2022-09-20T15:23:30.982Z,4.97
2022-09-20T15:26:00.085Z,1.77
2022-09-20T15:28:32.534Z,2.80
2022-09-20T15:31:00.860Z,1.92
2022-09-20T15:33:31.358Z,1.88
2022-09-20T15:36:00.193Z,2.58
2022-09-20T15:38:28.586Z,2.15
2022-09-20T15:40:57.331Z,2.40
2022-09-20T15:43:27.320Z,3.17
2022-09-20T15:46:00.349Z,1.52
2022-09-20T15:48:30.963Z,2.40
2022-09-20T15:51:03.608Z,2.78
2022-09-20T15:53:34.218Z,2.90
2022-09-20T15:56:04.900Z,2.70
2022-09-20T15:58:36.653Z,3.60
2022-09-20T16:01:09.510Z,3.38
2022-09-20T16:03:38.675Z,2.13
2022-09-20T16:06:08.350Z,2.33
2022-09-20T16:08:38.914Z,1.98
2022-09-20T16:11:08.735Z,4.13
2022-09-20T16:13:38.915Z,2.45
2022-09-20T16:16:13.208Z,1.92
2022-09-20T16:18:59.747Z,2.58
2022-09-20T16:21:29.487Z,2.47
2022-09-20T16:24:01.259Z,2.85
2022-09-20T16:26:31.806Z,2.35
2022-09-20T16:29:00.793Z,2.25
2022-09-20T16:31:37.576Z,2.38
2022-09-20T16:34:08.154Z,2.42
2022-09-20T16:36:36.400Z,2.67
2022-09-20T16:39:04.864Z,2.15
2022-09-20T16:41:33.678Z,2.78
2022-09-20T16:44:02.209Z,4.93
2022-09-20T16:46:33.407Z,2.88
2022-09-20T16:49:01.712Z,2.45
2022-09-20T16:51:34.064Z,3.63
2022-09-20T16:54:03.856Z,1.80
2022-09-20T16:56:34.992Z,4.13
2022-09-20T16:59:05.022Z,2.63
2022-09-20T17:01:36.619Z,3.22
2022-09-20T17:04:06.621Z,2.47
2022-09-20T17:06:36.440Z,3.47
2022-09-20T17:09:06.041Z,2.70
2022-09-20T17:11:36.860Z,2.65
2022-09-20T17:14:06.428Z,2.80
2022-09-20T17:16:38.972Z,2.85
2022-09-20T17:19:09.311Z,2.35
2022-09-20T17:21:39.984Z,3.03
2022-09-20T17:24:08.587Z,2.53
2022-09-20T17:26:38.718Z,3.25
2022-09-20T17:29:09.401Z,2.88
2022-09-20T17:31:41.614Z,2.33
2022-09-20T17:34:12.107Z,2.00
2022-09-20T17:36:42.508Z,2.30
2022-09-20T17:39:12.937Z,3.13
2022-09-20T17:41:42.930Z,4.55
2022-09-20T17:44:12.111Z,2.05
2022-09-20T17:46:44.303Z,2.35
2022-09-20T17:49:14.073Z,3.17
2022-09-20T17:51:44.196Z,2.65
2022-09-20T17:54:14.082Z,2.42
2022-09-20T17:56:47.449Z,2.80
2022-09-20T17:59:19.001Z,4.70
2022-09-20T18:01:50.500Z,3.67
2022-09-20T18:04:21.111Z,2.15
2022-09-20T18:06:51.507Z,2.40
2022-09-20T18:09:23.381Z,2.40
2022-09-20T18:11:54.091Z,2.75
2022-09-20T18:14:24.959Z,3.85
2022-09-20T18:16:58.203Z,4.32
2022-09-20T18:19:33.100Z,4.38
2022-09-20T18:22:03.333Z,2.72
2022-09-20T18:24:33.380Z,2.97
2022-09-20T18:27:04.188Z,2.95
2022-09-20T18:29:36.834Z,3.25
2022-09-20T18:32:08.630Z,4.30
2022-09-20T18:34:36.962Z,4.03
2022-09-20T18:37:09.082Z,3.35
2022-09-20T18:39:40.739Z,4.15
2022-09-20T18:42:09.057Z,5.13
2022-09-20T18:44:38.058Z,4.03
2022-09-20T18:47:07.848Z,5.75
2022-09-20T18:49:36.420Z,4.85
2022-09-20T18:52:05.457Z,4.95
2022-09-20T18:54:33.839Z,4.90
2022-09-20T18:57:02.801Z,5.45
2022-09-20T18:59:31.588Z,7.32
2022-09-20T19:02:10.269Z,6.07
2022-09-20T19:05:01.010Z,7.15
2022-09-20T19:07:41.553Z,7.15
2022-09-20T19:10:22.599Z,8.07
2022-09-20T19:12:58.817Z,7.93
2022-09-20T19:15:40.058Z,7.93
2022-09-20T19:18:26.983Z,8.10
2022-09-20T19:21:01.429Z,8.20
2022-09-20T19:23:46.201Z,8.65
2022-09-20T19:26:21.641Z,7.40
2022-09-20T19:28:51.034Z,6.82
2022-09-20T19:31:24.377Z,7.28
2022-09-20T19:33:55.849Z,6.97
2022-09-20T19:36:25.317Z,7.57
2022-09-20T19:39:05.284Z,5.82
2022-09-20T19:41:47.269Z,5.85
2022-09-20T19:44:29.134Z,5.53
2022-09-20T19:47:13.714Z,6.88
2022-09-20T19:49:53.606Z,6.70
2022-09-20T19:52:22.961Z,5.25
2022-09-20T19:54:52.570Z,7.28
2022-09-20T19:57:23.528Z,6.57
2022-09-20T19:59:52.881Z,6.00
2022-09-20T20:02:21.490Z,4.38
2022-09-20T20:04:52.745Z,6.50
2022-09-20T20:07:30.607Z,4.40
2022-09-20T20:10:09.180Z,4.93
2022-09-20T20:12:44.868Z,5.88
2022-09-20T20:15:22.578Z,4.85
2022-09-20T20:17:58.899Z,4.72
2022-09-20T20:20:34.778Z,4.95
2022-09-20T20:23:35.870Z,4.80
2022-09-20T20:26:08.834Z,5.10
2022-09-20T20:28:37.899Z,4.95
2022-09-20T20:31:12.121Z,5.03
2022-09-20T20:33:41.288Z,4.28
2022-09-20T20:36:11.901Z,4.53
2022-09-20T20:38:41.628Z,3.97
2022-09-20T20:41:11.696Z,5.07
2022-09-20T20:43:41.906Z,5.00
2022-09-20T20:46:12.162Z,5.00
2022-09-20T20:48:40.555Z,4.85
2022-09-20T20:51:11.585Z,4.45
2022-09-20T20:53:44.753Z,5.03
2022-09-20T20:56:15.460Z,4.43
2022-09-20T20:58:45.038Z,4.65
2022-09-20T21:01:15.688Z,7.50
2022-09-20T21:03:47.907Z,5.15
2022-09-20T21:06:17.791Z,4.85
2022-09-20T21:08:49.775Z,4.88
2022-09-20T21:11:20.349Z,5.20
2022-09-20T21:13:48.849Z,4.53
2022-09-20T21:16:18.817Z,5.13
2022-09-20T21:18:48.599Z,4.22
2022-09-20T21:21:20.671Z,4.78
2022-09-20T21:23:50.888Z,4.95
2022-09-20T21:26:20.150Z,4.28
2022-09-20T21:28:52.065Z,4.85
2022-09-20T21:31:21.794Z,3.97
2022-09-20T21:33:50.302Z,3.70
2022-09-20T21:36:21.144Z,3.92
2022-09-20T21:38:49.782Z,5.30
2022-09-20T21:41:19.970Z,3.92
2022-09-20T21:43:48.825Z,4.00
2022-09-20T21:46:18.928Z,3.65
2022-09-20T21:48:48.606Z,4.10
2022-09-20T21:51:19.570Z,4.10
2022-09-20T21:53:50.233Z,4.03
2022-09-20T21:56:18.596Z,4.05
2022-09-20T21:58:47.487Z,3.83
2022-09-20T22:01:17.657Z,3.63
2022-09-20T22:03:47.645Z,3.97
2022-09-20T22:06:17.505Z,3.95
2022-09-20T22:08:49.761Z,3.60
2022-09-20T22:11:19.057Z,3.38
2022-09-20T22:13:49.164Z,3.47
2022-09-20T22:16:20.093Z,4.30
2022-09-20T22:18:49.023Z,4.05
2022-09-20T22:21:18.869Z,4.43
2022-09-20T22:23:50.816Z,3.60
2022-09-20T22:26:21.249Z,3.97
2022-09-20T22:28:50.130Z,3.63
2022-09-20T22:31:20.714Z,3.70
2022-09-20T22:33:51.270Z,3.58
2022-09-20T22:36:22.641Z,3.65
2022-09-20T22:38:53.865Z,5.13
2022-09-20T22:41:22.860Z,5.30
2022-09-20T22:43:51.882Z,3.40
2022-09-20T22:46:22.048Z,3.85
2022-09-20T22:48:50.856Z,4.05
2022-09-20T22:51:20.710Z,5.20
2022-09-20T22:53:49.937Z,3.58
2022-09-20T22:56:21.119Z,3.50
2022-09-20T22:58:51.675Z,3.65
2022-09-20T23:01:21.501Z,3.40
2022-09-20T23:03:54.930Z,5.18
2022-09-20T23:06:25.572Z,3.95
2022-09-20T23:08:58.342Z,3.63
2022-09-20T23:11:28.840Z,3.75
2022-09-20T23:13:59.397Z,5.18
2022-09-20T23:16:29.438Z,3.17
2022-09-20T23:18:59.221Z,3.88
2022-09-20T23:21:27.944Z,4.45
2022-09-20T23:23:58.625Z,4.32
2022-09-20T23:26:30.562Z,4.47
2022-09-20T23:29:04.026Z,4.28
2022-09-20T23:31:34.554Z,3.83
2022-09-20T23:34:04.820Z,3.67
2022-09-20T23:36:35.654Z,3.65
2022-09-20T23:39:04.350Z,3.58
2022-09-20T23:41:34.267Z,3.15
2022-09-20T23:44:03.776Z,3.95
2022-09-20T23:46:33.191Z,3.70
2022-09-20T23:49:01.480Z,4.68
2022-09-20T23:51:30.673Z,3.28
2022-09-20T23:53:59.476Z,4.32
2022-09-20T23:56:28.764Z,4.00
2022-09-20T23:58:58.385Z,3.30
